Latest Weather Observations for Mount Baw Baw

IDV60801

Issued at 3:12 pm EDT Sunday 17 November 2019 (issued every 10 minutes, with the page automatically refreshed every 10 minutes)

About weather observations | Map of weather stations | Latest weather observations for VIC | Other Formats
Station Details ID: 085291 Name: MOUNT BAW BAW Lat: -37.84 Lon: 146.27 Height: 1561.0 m
Data from the previous 72 hours. | See also: Recent months at Mount Baw Baw
Date/Time
EDT
Temp
°C
App
Temp
°C
Dew
Point
°C
Rel
Hum
%
Delta-T
°C
Wind Press
QNH
hPa
Press
MSL
hPa
Rain since
9am
mm
Dir  Spd
km/h
Gust
km/h
Spd
kts
Gust
kts
17/03:00pm 4.2 0.5 4.2 100 0.0 SW 13 20 - 11 - - 1.2
17/02:30pm 3.2 -0.4 3.2 100 0.0 SW 11 15 - 8 - - 1.2
17/02:00pm 2.9 -0.7 2.9 100 0.0 SW 11 20 - 11 - - 1.2
17/01:30pm 2.9 -1.8 2.9 100 0.0 SW 17 24 - 13 - - 1.2
17/01:00pm 2.6 -2.2 2.6 100 0.0 SW 17 26 - 14 - - 1.2
17/12:30pm 2.0 -2.1 2.0 100 0.0 SW 13 26 - 14 - - 1.2
17/12:00pm 2.3 -2.2 2.3 100 0.0 SW 15 20 - 11 - - 1.2
17/11:30am 1.3 -4.1 1.3 100 0.0 SW 19 24 - 13 - - 1.2
17/11:00am 1.3 -4.1 1.3 100 0.0 SW 19 26 - 14 - - 1.2
17/10:30am 0.7 -5.0 0.7 100 0.0 SW 20 32 - 17 - - 1.2
17/10:00am 0.2 -5.6 0.2 100 0.0 SW 20 33 - 18 - - 1.2
17/09:30am 0.3 -5.8 0.3 100 0.0 SW 22 33 - 18 - - 1.0
17/09:00am 0.0 -5.8 0.0 100 0.0 SW 20 32 - 17 - - 1.8
17/08:30am -0.1 -6.3 -0.1 100 0.0 SW 22 32 - 17 - - 1.4
17/08:00am -0.3 -6.5 -0.3 100 0.0 SW 22 33 - 18 - - 1.4
17/07:30am -0.3 -6.9 -0.3 100 0.0 SW 24 43 - 23 - - 1.4
17/07:00am -0.3 -7.3 -0.3 100 0.0 SW 26 41 - 22 - - 1.4
17/06:30am -0.3 -6.9 -0.3 100 0.0 SW 24 39 - 21 - - 1.0
17/06:00am -0.3 -2.3 -0.3 100 0.0 CALM 0 0 - 0 - - 0.2
17/05:30am -0.2 -2.2 -0.2 100 0.0 CALM 0 0 - 0 - - 0.0
17/05:00am -0.5 -2.6 -0.5 100 0.0 CALM 0 0 - 0 - - 0.0
17/04:30am -0.9 -3.0 -0.9 100 0.0 CALM 0 0 - 0 - - 0.0
17/04:00am -0.2 -2.2 -0.2 100 0.0 CALM 0 0 - 0 - - 0.0
17/03:30am -0.3 -2.3 -0.3 100 0.0 CALM 0 0 - 0 - - 0.0
17/03:00am -0.3 -6.5 -0.3 100 0.0 SW 22 33 - 18 - - 0.0
17/02:30am 0.2 -5.6 0.2 100 0.0 SW 20 30 - 16 - - 0.0
17/02:00am 0.2 -6.3 0.2 100 0.0 SW 24 41 - 22 - - 0.0
17/01:30am 0.7 -5.0 0.7 100 0.0 SW 20 33 - 18 - - 0.0
17/01:00am 0.5 -4.6 0.5 100 0.0 WSW 17 28 - 15 - - 0.0
17/12:30am 0.3 -4.9 0.3 100 0.0 WSW 17 28 - 15 - - 0.0
17/12:00am 0.2 -5.6 0.2 100 0.0 WSW 20 32 - 17 - - 0.0
 
Date/Time
EDT
Temp
°C
App
Temp
°C
Dew
Point
°C
Rel
Hum
%
Delta-T
°C
Wind Press
QNH
hPa
Press
MSL
hPa
Rain since
9am
mm
Dir  Spd
km/h
Gust
km/h
Spd
kts
Gust
kts
16/11:30pm 0.4 -5.7 0.4 100 0.0 WSW 22 32 - 17 - - 0.0
16/11:00pm 0.5 -4.6 0.5 100 0.0 WSW 17 28 - 15 - - 0.0
16/10:30pm 0.8 -5.6 0.8 100 0.0 SW 24 39 - 21 - - 0.0
16/10:00pm 0.8 -4.9 0.8 100 0.0 WSW 20 39 - 21 - - 0.0
16/09:30pm 1.0 -5.0 1.0 100 0.0 SW 22 35 - 19 - - 0.0
16/09:00pm 0.8 -4.3 0.8 100 0.0 WSW 17 28 - 15 - - 0.0
16/08:30pm 1.3 -3.7 1.3 100 0.0 WSW 17 30 - 16 - - 0.0
16/08:00pm 1.4 -3.6 1.4 100 0.0 SW 17 24 - 13 - - 0.0
16/07:30pm 1.4 -3.6 1.4 100 0.0 SW 17 24 - 13 - - 0.0
16/07:00pm 1.5 -3.5 1.5 100 0.0 WSW 17 26 - 14 - - 0.0
16/06:30pm 1.7 -3.3 1.6 99 0.0 WSW 17 26 - 14 - - 0.0
16/06:00pm 2.0 -3.5 1.7 98 0.1 WSW 20 32 - 17 - - 0.0
16/05:30pm 2.4 -2.8 2.4 100 0.0 WSW 19 28 - 15 - - 0.0
16/05:00pm 2.8 -2.3 2.8 100 0.0 WSW 19 28 - 15 - - 0.0
16/04:30pm 3.1 -2.6 3.1 100 0.0 WSW 22 35 - 19 - - 0.0
16/04:00pm 3.9 -1.2 3.9 100 0.0 WSW 20 32 - 17 - - 0.0
16/03:30pm 3.9 -0.7 3.9 100 0.0 WSW 17 24 - 13 - - 0.0
16/03:00pm 4.6 0.2 4.6 100 0.0 SW 17 28 - 15 - - 0.0
16/02:30pm 3.3 -1.8 3.3 100 0.0 WSW 19 26 - 14 - - 0.0
16/02:00pm 4.1 -0.4 4.1 100 0.0 SW 17 30 - 16 - - 0.0
16/01:30pm 3.2 -1.1 3.2 100 0.0 WSW 15 24 - 13 - - 0.0
16/01:00pm 2.5 -2.3 2.5 100 0.0 WSW 17 26 - 14 - - 0.0
16/12:30pm 2.0 -3.3 2.0 100 0.0 SW 19 26 - 14 - - 0.0
16/12:00pm 2.3 -3.1 2.3 100 0.0 WSW 20 30 - 16 - - 0.0
16/11:30am 0.7 -4.8 0.7 100 0.0 WSW 19 30 - 16 - - 0.0
16/11:00am 0.8 -4.7 0.8 100 0.0 WSW 19 30 - 16 - - 0.0
16/10:30am 0.0 -5.8 0.0 100 0.0 SW 20 28 - 15 - - 0.0
16/10:00am -0.4 -6.1 -0.4 100 0.0 WSW 19 32 - 17 - - 0.0
16/09:30am -0.7 -6.6 -0.7 100 0.0 SW 20 28 - 15 - - 0.0
16/09:00am -0.9 -7.2 -0.9 100 0.0 SW 22 32 - 17 - - 4.0
16/08:30am -1.5 -7.5 -1.5 100 0.0 WSW 20 28 - 15 - - -
16/08:00am -1.8 -7.6 -1.8 100 0.0 WSW 19 28 - 15 - - -
16/07:30am -1.5 -7.9 -1.5 100 0.0 WSW 22 30 - 16 - - -
16/07:00am -1.5 -7.9 -1.5 100 0.0 WSW 22 33 - 18 - - -
16/06:30am -1.6 -8.4 -1.6 100 0.0 WSW 24 39 - 21 - - -
16/06:00am -1.6 -8.7 -1.6 100 0.0 WSW 26 37 - 20 - - -
16/05:30am -1.4 -8.5 -1.4 100 0.0 WSW 26 39 - 21 - - -
16/05:00am -1.5 -8.6 -1.5 100 0.0 WSW 26 37 - 20 - - -
16/04:30am -1.5 -8.3 -1.5 100 0.0 WSW 24 37 - 20 - - -
16/04:00am -1.3 -8.8 -1.3 100 0.0 WSW 28 39 - 21 - - -
16/03:30am -1.4 -8.9 -1.4 100 0.0 WSW 28 41 - 22 - - -
16/03:00am -1.4 -8.9 -1.4 100 0.0 WSW 28 39 - 21 - - 0.6
16/02:30am -1.3 -8.8 -1.3 100 0.0 WSW 28 39 - 21 - - -
16/02:00am -1.3 -8.8 -1.3 100 0.0 WSW 28 43 - 23 - - -
16/01:39am -0.9 -8.7 -0.9 100 0.0 WSW 30 50 - 27 - - -
16/01:30am -0.6 -8.4 -0.6 100 0.0 WSW 30 44 - 24 - - -
16/01:00am -0.2 -7.9 -0.2 100 0.0 WSW 30 44 - 24 - - -
16/12:49am -0.2 -7.5 -0.2 100 0.0 WSW 28 46 - 25 - - -
16/12:30am 0.1 -7.2 0.1 100 0.0 WSW 28 43 - 23 - - -
16/12:00am 0.5 -7.5 0.5 100 0.0 WSW 32 50 - 27 - - -
 
Date/Time
EDT
Temp
°C
App
Temp
°C
Dew
Point
°C
Rel
Hum
%
Delta-T
°C
Wind Press
QNH
hPa
Press
MSL
hPa
Rain since
9am
mm
Dir  Spd
km/h
Gust
km/h
Spd
kts
Gust
kts
15/11:41pm 0.6 -6.6 0.6 100 0.0 WSW 28 46 - 25 - - -
15/11:30pm 0.5 -6.0 0.5 100 0.0 WSW 24 39 - 21 - - -
15/11:10pm 0.8 -6.4 0.8 100 0.0 WSW 28 46 - 25 - - -
15/11:00pm 0.7 -6.1 0.7 100 0.0 WSW 26 43 - 23 - - -
15/10:30pm 1.0 -5.8 1.0 100 0.0 WSW 26 39 - 21 - - -
15/10:01pm 1.1 -6.0 1.1 100 0.0 WSW 28 46 - 25 - - -
15/10:00pm 1.1 -6.4 1.1 100 0.0 WSW 30 46 - 25 - - -
15/09:41pm 1.0 -6.2 1.0 100 0.0 WSW 28 46 - 25 - - -
15/09:30pm 1.1 -6.0 1.1 100 0.0 WSW 28 39 - 21 - - -
15/09:02pm 1.2 -6.3 1.2 100 0.0 WSW 30 48 - 26 - - -
15/09:00pm 1.3 -6.2 1.3 100 0.0 WSW 30 46 - 25 - - -
15/08:57pm 1.4 -5.7 1.4 100 0.0 WSW 28 46 - 25 - - -
15/08:30pm 1.5 -4.8 1.5 100 0.0 WSW 24 43 - 23 - - -
15/08:00pm 2.1 -4.9 2.1 100 0.0 WSW 28 50 - 27 - - -
15/07:53pm 2.1 -4.9 2.1 100 0.0 WSW 28 50 - 27 - - -
15/07:30pm 2.2 -4.0 2.2 100 0.0 WSW 24 46 - 25 - - -
15/07:00pm 2.8 -2.5 2.8 100 0.0 WSW 20 32 - 17 - - -
15/06:30pm 3.1 -3.3 3.1 100 0.0 WSW 26 39 - 21 - - -
15/06:00pm 3.9 -2.8 3.9 100 0.0 WSW 28 46 - 25 - - -
15/05:58pm 3.9 -2.8 3.9 100 0.0 WSW 28 46 - 25 - - -
15/05:30pm 4.1 -1.4 4.1 100 0.0 WSW 22 35 - 19 - - -
15/05:00pm 4.4 -1.0 4.3 99 0.0 WSW 22 41 - 22 - - -
15/04:30pm 5.0 -0.3 4.9 99 0.0 W 22 41 - 22 - - -
15/04:00pm 4.8 -1.0 4.2 96 0.3 W 24 43 - 23 - - -
15/03:30pm 5.2 -0.3 4.2 93 0.5 W 22 37 - 20 - - -
15/03:00pm 4.5 -1.0 3.9 96 0.3 W 22 44 - 24 - - -
15/02:30pm 4.8 -1.1 3.9 94 0.4 WSW 24 37 - 20 - - -
15/02:00pm 4.8 -0.3 4.1 95 0.3 W 20 39 - 21 - - -
15/01:30pm 5.2 0.2 3.7 90 0.7 W 19 30 - 16 - - -
15/01:00pm 5.5 0.6 4.2 91 0.6 W 19 30 - 16 - - 0.0
15/12:30pm 4.8 0.4 4.7 99 0.0 W 17 26 - 14 - - 0.0
15/12:00pm 3.9 -0.3 3.8 99 0.0 W 15 30 - 16 - - 0.0
15/11:30am 3.7 -0.9 3.6 99 0.0 W 17 24 - 13 - - 0.0
15/11:00am 4.6 0.1 4.0 96 0.3 W 17 33 - 18 - - 0.0
15/10:30am 3.8 -1.2 3.8 100 0.0 W 19 41 - 22 - - 0.0
15/10:00am 3.1 -2.0 3.1 100 0.0 W 19 30 - 16 - - 0.0
15/09:30am 2.8 -1.6 2.8 100 0.0 W 15 28 - 15 - - 0.0
15/09:00am 2.1 -3.4 2.1 100 0.0 WSW 20 37 - 20 - - 0.2
15/08:30am 1.8 -3.7 1.8 100 0.0 W 20 35 - 19 - - -
15/08:00am 1.7 -3.6 1.7 100 0.0 WSW 19 32 - 17 - - -
15/07:30am 2.0 -3.3 2.0 100 0.0 W 19 35 - 19 - - -
15/07:00am 2.2 -3.2 2.2 100 0.0 W 20 37 - 20 - - -
15/06:30am 2.4 -3.0 2.4 100 0.0 W 20 37 - 20 - - -
15/06:00am 3.1 -2.0 3.1 100 0.0 W 19 32 - 17 - - -
15/05:30am 3.4 -1.6 3.4 100 0.0 WNW 19 33 - 18 - - -
15/05:00am 3.4 -2.2 3.4 100 0.0 W 22 37 - 20 - - -
15/04:30am 3.5 -1.7 3.5 100 0.0 WNW 20 33 - 18 - - -
15/04:00am 3.6 -1.6 3.6 100 0.0 W 20 35 - 19 - - -
15/03:30am 3.7 -0.9 3.7 100 0.0 WNW 17 32 - 17 - - -
15/03:00am 4.0 -1.1 4.0 100 0.0 WNW 20 35 - 19 - - -
15/02:30am 4.2 -0.7 4.2 100 0.0 NW 19 28 - 15 - - -
15/02:00am 4.4 - 4.4 100 0.0 - - - - - - - -
15/01:30am 4.6 -0.2 4.6 100 0.0 WNW 19 44 - 24 - - -
15/01:00am 4.8 -0.2 4.8 100 0.0 WNW 20 39 - 21 - - -
15/12:30am 5.0 0.1 5.0 100 0.0 WNW 20 35 - 19 - - -
15/12:00am 5.0 -0.3 5.0 100 0.0 WNW 22 41 - 22 - - -
 
Date/Time
EDT
Temp
°C
App
Temp
°C
Dew
Point
°C
Rel
Hum
%
Delta-T
°C
Wind Press
QNH
hPa
Press
MSL
hPa
Rain since
9am
mm
Dir  Spd
km/h
Gust
km/h
Spd
kts
Gust
kts
14/11:30pm 5.2 0.3 5.2 100 0.0 W 20 39 - 21 - - -
14/11:00pm 5.3 0.4 5.3 100 0.0 W 20 37 - 20 - - -
14/10:30pm 5.4 0.8 5.4 100 0.0 W 19 30 - 16 - - -
14/10:00pm 5.6 0.8 5.6 100 0.0 W 20 43 - 23 - - -
14/09:30pm 5.9 1.7 5.8 99 0.0 WNW 17 33 - 18 - - -
14/09:00pm 5.9 1.3 5.8 99 0.0 W 19 30 - 16 - - 0.0
14/08:30pm 5.8 1.6 5.7 99 0.0 WNW 17 30 - 16 - - -
14/08:00pm 6.1 1.6 6.0 99 0.0 W 19 33 - 18 - - -
14/07:30pm 6.5 1.9 6.4 99 0.0 WNW 20 35 - 19 - - -
14/07:00pm 7.5 3.0 6.1 91 0.7 W 19 35 - 19 - - -
14/06:30pm 8.3 4.2 6.4 88 1.0 W 17 35 - 19 - - -
14/06:00pm 7.4 2.8 5.7 89 0.8 W 19 30 - 16 - - -
14/05:30pm 8.3 5.4 8.3 100 0.0 NW 13 22 - 12 - - -
14/05:00pm 8.0 5.1 8.0 100 0.0 NW 13 28 - 15 - - -
14/04:30pm 9.0 6.3 9.0 100 0.0 WNW 13 28 - 15 - - -
14/04:00pm 8.7 5.9 8.7 100 0.0 WNW 13 30 - 16 - - -
14/03:30pm 8.0 3.9 8.0 100 0.0 W 19 33 - 18 - - -

Other formats

Comma delimited format used in spreadsheet applications
http://www.bom.gov.au/fwo/IDV60801/IDV60801.95901.axf

JavaScript Object Notation format (JSON) in row-major order
http://www.bom.gov.au/fwo/IDV60801/IDV60801.95901.json

Data quality

Most of these data are generated automatically and are frequently updated. Quality checks on data are not normally performed. It is possible for incorrect values to appear. Refer to information at About Latest Weather Observations and please check the disclaimer before using these data.